To NAV CANADA Home Page Login to a new session Search on AWWS site Feedback and Comments Disclaimer Vers la page française équivalente Tips FAQ What's new on the site To the Forecasts and Observations / NOTAM section To "File a Flight Plan" website Publications and other links Update of the User's profile FIC Telephone Numbers My Weather Data Folder Route Weather Data Regional Weather Data Local Weather Data To the Forecasts and Observations / NOTAM section
Request Generated 05/25/2017 at 01:08:59 UTC . Weather information available at that time is displayed.

METAR/TAF

BURWASH/YT    (show WxCam)

METAR CYDB 250100Z AUTO 13012G20KT 9SM CLR 16/M03 A2982 RMK SLP123
DENSITY ALT 3400FT=
METAR CYDB 250000Z AUTO 13012G22KT 9SM CLR 16/M03 A2983 RMK SLP127
DENSITY ALT 3500FT=
METAR CYDB 242300Z AUTO 13015G24KT 9SM CLR 15/M03 A2985 RMK SLP132
DENSITY ALT 3300FT=

TAF CYDB 242338Z 2500/2512 13015G25KT P6SM FEW100 SCT200
BECMG 2504/2506 13012KT
RMK NXT FCST BY 250600Z=
Your time UTC time
Weather data provided by Environment Canada and NAV CANADA